sensor_id;sensor_type;location;lat;lon;timestamp;P1;durP1;ratioP1;P2;durP2;ratioP2
34060;SDS011;20336;-33.424;-70.638;2023-11-18T00:01:31;9.50;;;3.23;;
34060;SDS011;20336;-33.424;-70.638;2023-11-18T00:03:59;11.80;;;3.27;;
34060;SDS011;20336;-33.424;-70.638;2023-11-18T00:06:26;7.40;;;3.13;;
34060;SDS011;20336;-33.424;-70.638;2023-11-18T00:08:56;8.60;;;2.87;;
34060;SDS011;20336;-33.424;-70.638;2023-11-18T00:11:23;8.60;;;2.60;;
34060;SDS011;20336;-33.424;-70.638;2023-11-18T00:13:50;9.33;;;2.87;;
34060;SDS011;20336;-33.424;-70.638;2023-11-18T00:16:17;8.30;;;2.83;;
34060;SDS011;20336;-33.424;-70.638;2023-11-18T00:18:44;9.13;;;3.23;;
34060;SDS011;20336;-33.424;-70.638;2023-11-18T00:21:11;7.37;;;2.87;;
34060;SDS011;20336;-33.424;-70.638;2023-11-18T00:23:38;10.60;;;3.13;;
34060;SDS011;20336;-33.424;-70.638;2023-11-18T00:26:05;6.13;;;2.87;;
34060;SDS011;20336;-33.424;-70.638;2023-11-18T00:28:32;8.40;;;2.70;;
34060;SDS011;20336;-33.424;-70.638;2023-11-18T00:30:59;6.80;;;3.60;;
34060;SDS011;20336;-33.424;-70.638;2023-11-18T00:33:26;7.90;;;3.53;;
34060;SDS011;20336;-33.424;-70.638;2023-11-18T00:35:53;6.60;;;3.60;;
34060;SDS011;20336;-33.424;-70.638;2023-11-18T00:38:20;9.27;;;4.17;;
34060;SDS011;20336;-33.424;-70.638;2023-11-18T00:40:47;7.17;;;3.50;;
34060;SDS011;20336;-33.424;-70.638;2023-11-18T00:43:14;7.53;;;3.10;;
34060;SDS011;20336;-33.424;-70.638;2023-11-18T00:45:41;8.73;;;3.40;;
34060;SDS011;20336;-33.424;-70.638;2023-11-18T00:48:09;7.57;;;3.40;;
34060;SDS011;20336;-33.424;-70.638;2023-11-18T00:50:36;11.23;;;4.00;;
34060;SDS011;20336;-33.424;-70.638;2023-11-18T00:53:03;7.57;;;3.20;;
34060;SDS011;20336;-33.424;-70.638;2023-11-18T00:55:31;6.40;;;3.63;;
34060;SDS011;20336;-33.424;-70.638;2023-11-18T00:57:58;8.17;;;4.00;;
34060;SDS011;20336;-33.424;-70.638;2023-11-18T01:00:25;7.17;;;3.53;;
34060;SDS011;20336;-33.424;-70.638;2023-11-18T01:02:52;6.60;;;3.70;;
34060;SDS011;20336;-33.424;-70.638;2023-11-18T01:05:20;9.17;;;4.00;;
34060;SDS011;20336;-33.424;-70.638;2023-11-18T01:07:47;13.17;;;4.40;;
34060;SDS011;20336;-33.424;-70.638;2023-11-18T01:10:15;8.67;;;4.10;;
34060;SDS011;20336;-33.424;-70.638;2023-11-18T01:12:42;8.70;;;4.03;;
34060;SDS011;20336;-33.424;-70.638;2023-11-18T01:15:10;6.50;;;3.67;;
34060;SDS011;20336;-33.424;-70.638;2023-11-18T01:17:38;10.20;;;3.70;;
34060;SDS011;20336;-33.424;-70.638;2023-11-18T01:20:06;7.53;;;3.60;;
34060;SDS011;20336;-33.424;-70.638;2023-11-18T01:22:37;8.07;;;3.20;;
34060;SDS011;20336;-33.424;-70.638;2023-11-18T01:25:05;6.63;;;3.77;;
34060;SDS011;20336;-33.424;-70.638;2023-11-18T01:27:34;4.63;;;2.93;;
34060;SDS011;20336;-33.424;-70.638;2023-11-18T01:30:02;7.03;;;2.90;;
34060;SDS011;20336;-33.424;-70.638;2023-11-18T01:32:30;4.80;;;3.00;;
34060;SDS011;20336;-33.424;-70.638;2023-11-18T01:34:57;5.90;;;2.33;;
34060;SDS011;20336;-33.424;-70.638;2023-11-18T01:37:24;6.37;;;3.07;;
34060;SDS011;20336;-33.424;-70.638;2023-11-18T01:39:51;6.60;;;2.90;;
34060;SDS011;20336;-33.424;-70.638;2023-11-18T01:42:18;5.00;;;2.80;;
34060;SDS011;20336;-33.424;-70.638;2023-11-18T01:44:47;4.70;;;3.00;;
34060;SDS011;20336;-33.424;-70.638;2023-11-18T01:47:14;7.80;;;3.47;;
34060;SDS011;20336;-33.424;-70.638;2023-11-18T01:49:41;5.47;;;3.17;;
34060;SDS011;20336;-33.424;-70.638;2023-11-18T01:52:09;8.73;;;4.00;;
34060;SDS011;20336;-33.424;-70.638;2023-11-18T01:54:37;7.60;;;3.80;;
34060;SDS011;20336;-33.424;-70.638;2023-11-18T01:57:05;12.83;;;4.00;;
34060;SDS011;20336;-33.424;-70.638;2023-11-18T01:59:35;8.10;;;3.80;;
34060;SDS011;20336;-33.424;-70.638;2023-11-18T02:02:03;8.03;;;3.90;;
34060;SDS011;20336;-33.424;-70.638;2023-11-18T02:04:31;7.90;;;4.00;;
34060;SDS011;20336;-33.424;-70.638;2023-11-18T02:06:58;8.50;;;4.00;;
34060;SDS011;20336;-33.424;-70.638;2023-11-18T02:09:29;10.27;;;4.00;;
34060;SDS011;20336;-33.424;-70.638;2023-11-18T02:12:00;7.73;;;3.70;;
34060;SDS011;20336;-33.424;-70.638;2023-11-18T02:14:30;6.80;;;3.70;;
34060;SDS011;20336;-33.424;-70.638;2023-11-18T02:16:59;7.87;;;3.80;;
34060;SDS011;20336;-33.424;-70.638;2023-11-18T02:19:26;6.03;;;3.10;;
34060;SDS011;20336;-33.424;-70.638;2023-11-18T02:21:53;6.47;;;2.80;;
34060;SDS011;20336;-33.424;-70.638;2023-11-18T02:24:26;5.67;;;2.53;;
34060;SDS011;20336;-33.424;-70.638;2023-11-18T02:26:54;3.30;;;2.13;;
34060;SDS011;20336;-33.424;-70.638;2023-11-18T02:29:23;5.80;;;2.60;;
34060;SDS011;20336;-33.424;-70.638;2023-11-18T02:31:52;4.60;;;2.40;;
34060;SDS011;20336;-33.424;-70.638;2023-11-18T02:34:22;8.30;;;2.50;;
34060;SDS011;20336;-33.424;-70.638;2023-11-18T02:36:51;8.57;;;3.50;;
34060;SDS011;20336;-33.424;-70.638;2023-11-18T02:39:24;7.47;;;3.80;;
34060;SDS011;20336;-33.424;-70.638;2023-11-18T02:41:54;7.63;;;3.27;;
34060;SDS011;20336;-33.424;-70.638;2023-11-18T02:44:22;8.67;;;3.90;;
34060;SDS011;20336;-33.424;-70.638;2023-11-18T02:46:51;5.40;;;3.50;;
34060;SDS011;20336;-33.424;-70.638;2023-11-18T02:49:18;6.33;;;3.50;;
34060;SDS011;20336;-33.424;-70.638;2023-11-18T02:51:45;5.57;;;3.63;;
34060;SDS011;20336;-33.424;-70.638;2023-11-18T02:54:13;5.50;;;2.90;;
34060;SDS011;20336;-33.424;-70.638;2023-11-18T02:56:41;6.13;;;2.77;;
34060;SDS011;20336;-33.424;-70.638;2023-11-18T02:59:08;8.90;;;3.00;;
34060;SDS011;20336;-33.424;-70.638;2023-11-18T03:01:35;9.00;;;2.60;;
34060;SDS011;20336;-33.424;-70.638;2023-11-18T03:04:06;5.90;;;2.47;;
34060;SDS011;20336;-33.424;-70.638;2023-11-18T03:06:35;6.40;;;2.87;;
34060;SDS011;20336;-33.424;-70.638;2023-11-18T03:09:02;6.07;;;2.10;;
34060;SDS011;20336;-33.424;-70.638;2023-11-18T03:11:33;3.40;;;2.17;;
34060;SDS011;20336;-33.424;-70.638;2023-11-18T03:14:00;5.00;;;2.37;;
34060;SDS011;20336;-33.424;-70.638;2023-11-18T03:16:30;4.57;;;2.30;;
34060;SDS011;20336;-33.424;-70.638;2023-11-18T03:18:57;3.93;;;2.43;;
34060;SDS011;20336;-33.424;-70.638;2023-11-18T03:21:24;3.53;;;2.10;;
34060;SDS011;20336;-33.424;-70.638;2023-11-18T03:23:51;3.30;;;2.00;;
34060;SDS011;20336;-33.424;-70.638;2023-11-18T03:26:19;3.67;;;1.80;;
34060;SDS011;20336;-33.424;-70.638;2023-11-18T03:28:50;3.20;;;1.90;;
34060;SDS011;20336;-33.424;-70.638;2023-11-18T03:31:17;3.67;;;1.70;;
34060;SDS011;20336;-33.424;-70.638;2023-11-18T03:33:45;4.50;;;2.33;;
34060;SDS011;20336;-33.424;-70.638;2023-11-18T03:36:12;4.17;;;2.00;;
34060;SDS011;20336;-33.424;-70.638;2023-11-18T03:38:39;6.77;;;2.10;;
34060;SDS011;20336;-33.424;-70.638;2023-11-18T03:41:06;3.13;;;2.03;;
34060;SDS011;20336;-33.424;-70.638;2023-11-18T03:43:34;5.30;;;2.37;;
34060;SDS011;20336;-33.424;-70.638;2023-11-18T03:46:00;4.07;;;1.80;;
34060;SDS011;20336;-33.424;-70.638;2023-11-18T03:48:27;6.00;;;2.10;;
34060;SDS011;20336;-33.424;-70.638;2023-11-18T03:50:55;2.70;;;1.80;;
34060;SDS011;20336;-33.424;-70.638;2023-11-18T03:53:22;3.17;;;2.07;;
34060;SDS011;20336;-33.424;-70.638;2023-11-18T03:55:49;4.77;;;2.10;;
34060;SDS011;20336;-33.424;-70.638;2023-11-18T03:58:17;3.63;;;1.90;;
34060;SDS011;20336;-33.424;-70.638;2023-11-18T04:00:44;4.00;;;2.00;;
34060;SDS011;20336;-33.424;-70.638;2023-11-18T04:03:11;4.20;;;2.17;;
34060;SDS011;20336;-33.424;-70.638;2023-11-18T04:05:38;4.30;;;2.30;;
34060;SDS011;20336;-33.424;-70.638;2023-11-18T04:08:05;3.77;;;2.27;;
34060;SDS011;20336;-33.424;-70.638;2023-11-18T04:10:32;6.03;;;2.30;;
34060;SDS011;20336;-33.424;-70.638;2023-11-18T04:12:58;4.00;;;1.90;;
34060;SDS011;20336;-33.424;-70.638;2023-11-18T04:15:25;5.47;;;2.40;;
34060;SDS011;20336;-33.424;-70.638;2023-11-18T04:17:52;3.40;;;2.10;;
34060;SDS011;20336;-33.424;-70.638;2023-11-18T04:20:19;5.37;;;2.23;;
34060;SDS011;20336;-33.424;-70.638;2023-11-18T04:22:47;4.80;;;2.30;;
34060;SDS011;20336;-33.424;-70.638;2023-11-18T04:25:14;5.07;;;2.50;;
34060;SDS011;20336;-33.424;-70.638;2023-11-18T04:27:41;4.77;;;1.97;;
34060;SDS011;20336;-33.424;-70.638;2023-11-18T04:30:08;3.17;;;2.23;;
34060;SDS011;20336;-33.424;-70.638;2023-11-18T04:32:35;4.17;;;2.37;;
34060;SDS011;20336;-33.424;-70.638;2023-11-18T04:35:02;3.53;;;2.33;;
34060;SDS011;20336;-33.424;-70.638;2023-11-18T04:37:34;4.73;;;2.50;;
34060;SDS011;20336;-33.424;-70.638;2023-11-18T04:40:01;4.97;;;2.53;;
34060;SDS011;20336;-33.424;-70.638;2023-11-18T04:42:29;3.73;;;2.50;;
34060;SDS011;20336;-33.424;-70.638;2023-11-18T04:44:57;3.90;;;2.43;;
34060;SDS011;20336;-33.424;-70.638;2023-11-18T04:47:24;4.10;;;2.53;;
34060;SDS011;20336;-33.424;-70.638;2023-11-18T04:49:52;5.73;;;2.20;;
34060;SDS011;20336;-33.424;-70.638;2023-11-18T04:52:19;7.57;;;2.77;;
34060;SDS011;20336;-33.424;-70.638;2023-11-18T04:54:46;3.67;;;2.53;;
34060;SDS011;20336;-33.424;-70.638;2023-11-18T04:57:13;4.87;;;2.77;;
34060;SDS011;20336;-33.424;-70.638;2023-11-18T04:59:41;5.33;;;2.97;;
34060;SDS011;20336;-33.424;-70.638;2023-11-18T05:02:09;7.43;;;2.83;;
34060;SDS011;20336;-33.424;-70.638;2023-11-18T05:04:36;6.27;;;2.83;;
34060;SDS011;20336;-33.424;-70.638;2023-11-18T05:07:03;4.60;;;2.90;;
34060;SDS011;20336;-33.424;-70.638;2023-11-18T05:09:31;5.50;;;2.60;;
34060;SDS011;20336;-33.424;-70.638;2023-11-18T05:12:00;6.70;;;3.40;;
34060;SDS011;20336;-33.424;-70.638;2023-11-18T05:14:27;3.87;;;2.70;;
34060;SDS011;20336;-33.424;-70.638;2023-11-18T05:16:54;5.27;;;2.87;;
34060;SDS011;20336;-33.424;-70.638;2023-11-18T05:19:21;6.70;;;2.93;;
34060;SDS011;20336;-33.424;-70.638;2023-11-18T05:21:48;5.60;;;3.10;;
34060;SDS011;20336;-33.424;-70.638;2023-11-18T05:24:15;7.40;;;3.73;;
34060;SDS011;20336;-33.424;-70.638;2023-11-18T05:26:42;6.07;;;3.23;;
34060;SDS011;20336;-33.424;-70.638;2023-11-18T05:29:09;6.93;;;3.60;;
34060;SDS011;20336;-33.424;-70.638;2023-11-18T05:31:41;7.20;;;3.20;;
34060;SDS011;20336;-33.424;-70.638;2023-11-18T05:34:09;8.87;;;3.13;;
34060;SDS011;20336;-33.424;-70.638;2023-11-18T05:36:38;6.23;;;3.27;;
34060;SDS011;20336;-33.424;-70.638;2023-11-18T05:39:05;5.23;;;3.40;;
34060;SDS011;20336;-33.424;-70.638;2023-11-18T05:41:34;8.13;;;3.47;;
34060;SDS011;20336;-33.424;-70.638;2023-11-18T05:44:05;7.17;;;3.23;;
34060;SDS011;20336;-33.424;-70.638;2023-11-18T05:46:34;5.63;;;3.37;;
34060;SDS011;20336;-33.424;-70.638;2023-11-18T05:49:02;7.30;;;3.90;;
34060;SDS011;20336;-33.424;-70.638;2023-11-18T05:51:33;9.63;;;3.57;;
34060;SDS011;20336;-33.424;-70.638;2023-11-18T05:54:00;7.63;;;4.00;;
34060;SDS011;20336;-33.424;-70.638;2023-11-18T05:56:27;8.40;;;4.40;;
34060;SDS011;20336;-33.424;-70.638;2023-11-18T05:58:54;8.03;;;4.53;;
34060;SDS011;20336;-33.424;-70.638;2023-11-18T06:01:21;7.67;;;4.27;;
34060;SDS011;20336;-33.424;-70.638;2023-11-18T06:03:48;7.77;;;4.63;;
34060;SDS011;20336;-33.424;-70.638;2023-11-18T06:06:15;11.43;;;4.83;;
34060;SDS011;20336;-33.424;-70.638;2023-11-18T06:08:43;9.77;;;5.07;;
34060;SDS011;20336;-33.424;-70.638;2023-11-18T06:11:10;10.80;;;4.97;;
34060;SDS011;20336;-33.424;-70.638;2023-11-18T06:13:45;8.03;;;4.07;;
34060;SDS011;20336;-33.424;-70.638;2023-11-18T06:18:44;7.50;;;4.80;;
34060;SDS011;20336;-33.424;-70.638;2023-11-18T06:21:15;9.93;;;5.20;;
34060;SDS011;20336;-33.424;-70.638;2023-11-18T06:23:44;11.30;;;5.57;;
34060;SDS011;20336;-33.424;-70.638;2023-11-18T06:26:11;11.27;;;5.27;;
34060;SDS011;20336;-33.424;-70.638;2023-11-18T06:28:39;14.40;;;6.10;;
34060;SDS011;20336;-33.424;-70.638;2023-11-18T06:31:06;11.97;;;5.57;;
34060;SDS011;20336;-33.424;-70.638;2023-11-18T06:33:52;14.10;;;5.77;;
34060;SDS011;20336;-33.424;-70.638;2023-11-18T06:36:19;11.07;;;5.57;;
34060;SDS011;20336;-33.424;-70.638;2023-11-18T06:38:47;13.53;;;5.80;;
34060;SDS011;20336;-33.424;-70.638;2023-11-18T06:41:15;10.10;;;5.20;;
34060;SDS011;20336;-33.424;-70.638;2023-11-18T06:43:43;11.27;;;5.40;;
34060;SDS011;20336;-33.424;-70.638;2023-11-18T06:46:23;13.30;;;6.53;;
34060;SDS011;20336;-33.424;-70.638;2023-11-18T06:48:52;11.37;;;6.10;;
34060;SDS011;20336;-33.424;-70.638;2023-11-18T06:51:23;13.13;;;6.37;;
34060;SDS011;20336;-33.424;-70.638;2023-11-18T06:53:50;13.47;;;6.40;;
34060;SDS011;20336;-33.424;-70.638;2023-11-18T06:56:20;17.77;;;6.90;;
34060;SDS011;20336;-33.424;-70.638;2023-11-18T06:58:47;16.10;;;7.03;;
34060;SDS011;20336;-33.424;-70.638;2023-11-18T07:01:14;16.00;;;6.40;;
34060;SDS011;20336;-33.424;-70.638;2023-11-18T07:03:41;14.20;;;6.33;;
34060;SDS011;20336;-33.424;-70.638;2023-11-18T07:06:09;12.57;;;5.43;;
34060;SDS011;20336;-33.424;-70.638;2023-11-18T07:08:36;13.57;;;5.50;;
34060;SDS011;20336;-33.424;-70.638;2023-11-18T07:11:04;7.93;;;4.17;;
34060;SDS011;20336;-33.424;-70.638;2023-11-18T07:13:32;11.27;;;4.03;;
34060;SDS011;20336;-33.424;-70.638;2023-11-18T07:16:02;6.47;;;4.03;;
34060;SDS011;20336;-33.424;-70.638;2023-11-18T07:18:30;6.50;;;4.13;;
34060;SDS011;20336;-33.424;-70.638;2023-11-18T07:21:01;7.50;;;4.80;;
34060;SDS011;20336;-33.424;-70.638;2023-11-18T07:23:30;16.00;;;5.50;;
34060;SDS011;20336;-33.424;-70.638;2023-11-18T07:25:57;8.47;;;4.87;;
34060;SDS011;20336;-33.424;-70.638;2023-11-18T07:28:24;11.20;;;4.60;;
34060;SDS011;20336;-33.424;-70.638;2023-11-18T07:30:52;9.33;;;4.53;;
34060;SDS011;20336;-33.424;-70.638;2023-11-18T07:33:19;10.00;;;4.80;;
34060;SDS011;20336;-33.424;-70.638;2023-11-18T07:35:49;7.37;;;4.30;;
34060;SDS011;20336;-33.424;-70.638;2023-11-18T07:38:18;13.37;;;4.20;;
34060;SDS011;20336;-33.424;-70.638;2023-11-18T07:40:47;7.47;;;4.07;;
34060;SDS011;20336;-33.424;-70.638;2023-11-18T07:43:14;7.90;;;4.43;;
34060;SDS011;20336;-33.424;-70.638;2023-11-18T07:45:41;9.83;;;4.90;;
34060;SDS011;20336;-33.424;-70.638;2023-11-18T07:48:09;8.33;;;4.80;;
34060;SDS011;20336;-33.424;-70.638;2023-11-18T07:50:37;10.20;;;5.17;;
34060;SDS011;20336;-33.424;-70.638;2023-11-18T07:53:06;10.37;;;4.87;;
34060;SDS011;20336;-33.424;-70.638;2023-11-18T07:55:34;11.10;;;4.73;;
34060;SDS011;20336;-33.424;-70.638;2023-11-18T07:58:08;8.00;;;4.93;;
34060;SDS011;20336;-33.424;-70.638;2023-11-18T08:00:38;8.30;;;4.17;;
34060;SDS011;20336;-33.424;-70.638;2023-11-18T08:03:06;10.57;;;4.90;;
34060;SDS011;20336;-33.424;-70.638;2023-11-18T08:05:43;8.27;;;4.00;;
34060;SDS011;20336;-33.424;-70.638;2023-11-18T08:08:11;6.83;;;3.50;;
34060;SDS011;20336;-33.424;-70.638;2023-11-18T08:10:39;6.97;;;3.70;;
34060;SDS011;20336;-33.424;-70.638;2023-11-18T08:13:06;10.00;;;4.87;;
34060;SDS011;20336;-33.424;-70.638;2023-11-18T08:15:40;7.43;;;4.90;;
34060;SDS011;20336;-33.424;-70.638;2023-11-18T08:18:07;12.17;;;5.90;;
34060;SDS011;20336;-33.424;-70.638;2023-11-18T08:20:37;9.23;;;5.53;;
34060;SDS011;20336;-33.424;-70.638;2023-11-18T08:23:04;7.37;;;4.50;;
34060;SDS011;20336;-33.424;-70.638;2023-11-18T08:25:31;9.37;;;5.50;;
34060;SDS011;20336;-33.424;-70.638;2023-11-18T08:28:01;14.50;;;5.77;;
34060;SDS011;20336;-33.424;-70.638;2023-11-18T08:30:33;11.93;;;5.40;;
34060;SDS011;20336;-33.424;-70.638;2023-11-18T08:33:00;7.10;;;4.53;;
34060;SDS011;20336;-33.424;-70.638;2023-11-18T08:35:29;11.77;;;5.47;;
34060;SDS011;20336;-33.424;-70.638;2023-11-18T08:37:56;11.20;;;4.70;;
34060;SDS011;20336;-33.424;-70.638;2023-11-18T08:40:26;9.80;;;4.80;;
34060;SDS011;20336;-33.424;-70.638;2023-11-18T08:42:53;9.33;;;4.80;;
34060;SDS011;20336;-33.424;-70.638;2023-11-18T08:45:27;9.97;;;5.03;;
34060;SDS011;20336;-33.424;-70.638;2023-11-18T08:47:55;14.00;;;5.63;;
34060;SDS011;20336;-33.424;-70.638;2023-11-18T08:50:22;11.50;;;5.43;;
34060;SDS011;20336;-33.424;-70.638;2023-11-18T08:52:53;10.93;;;5.67;;
34060;SDS011;20336;-33.424;-70.638;2023-11-18T08:55:23;10.47;;;4.87;;
34060;SDS011;20336;-33.424;-70.638;2023-11-18T08:58:06;12.77;;;5.93;;
34060;SDS011;20336;-33.424;-70.638;2023-11-18T09:00:56;9.90;;;5.53;;
34060;SDS011;20336;-33.424;-70.638;2023-11-18T09:03:52;13.87;;;6.70;;
34060;SDS011;20336;-33.424;-70.638;2023-11-18T09:06:19;10.87;;;5.50;;
34060;SDS011;20336;-33.424;-70.638;2023-11-18T09:08:53;13.87;;;7.03;;
34060;SDS011;20336;-33.424;-70.638;2023-11-18T09:11:23;15.63;;;7.50;;
34060;SDS011;20336;-33.424;-70.638;2023-11-18T09:13:57;13.47;;;6.80;;
34060;SDS011;20336;-33.424;-70.638;2023-11-18T09:16:25;12.87;;;6.13;;
34060;SDS011;20336;-33.424;-70.638;2023-11-18T09:18:58;9.53;;;5.97;;
34060;SDS011;20336;-33.424;-70.638;2023-11-18T09:21:27;11.63;;;7.00;;
34060;SDS011;20336;-33.424;-70.638;2023-11-18T09:24:01;11.10;;;6.00;;
34060;SDS011;20336;-33.424;-70.638;2023-11-18T09:26:33;11.80;;;6.47;;
34060;SDS011;20336;-33.424;-70.638;2023-11-18T09:29:00;9.60;;;5.83;;
34060;SDS011;20336;-33.424;-70.638;2023-11-18T09:31:27;14.30;;;6.47;;
34060;SDS011;20336;-33.424;-70.638;2023-11-18T09:33:56;13.20;;;5.10;;
34060;SDS011;20336;-33.424;-70.638;2023-11-18T09:36:23;13.10;;;5.97;;
34060;SDS011;20336;-33.424;-70.638;2023-11-18T09:38:54;10.97;;;6.00;;
34060;SDS011;20336;-33.424;-70.638;2023-11-18T09:41:22;10.27;;;5.60;;
34060;SDS011;20336;-33.424;-70.638;2023-11-18T09:43:52;10.13;;;5.43;;
34060;SDS011;20336;-33.424;-70.638;2023-11-18T09:46:22;8.70;;;5.20;;
34060;SDS011;20336;-33.424;-70.638;2023-11-18T09:48:50;8.00;;;4.67;;
34060;SDS011;20336;-33.424;-70.638;2023-11-18T09:51:27;11.33;;;5.03;;
34060;SDS011;20336;-33.424;-70.638;2023-11-18T09:53:59;7.27;;;4.23;;
34060;SDS011;20336;-33.424;-70.638;2023-11-18T10:01:41;9.73;;;4.60;;
34060;SDS011;20336;-33.424;-70.638;2023-11-18T10:04:12;7.53;;;4.60;;
34060;SDS011;20336;-33.424;-70.638;2023-11-18T10:06:43;9.33;;;4.20;;
34060;SDS011;20336;-33.424;-70.638;2023-11-18T10:09:11;8.60;;;3.90;;
34060;SDS011;20336;-33.424;-70.638;2023-11-18T10:11:47;12.23;;;4.77;;
34060;SDS011;20336;-33.424;-70.638;2023-11-18T10:14:14;12.33;;;5.20;;
34060;SDS011;20336;-33.424;-70.638;2023-11-18T10:16:44;7.83;;;4.47;;
34060;SDS011;20336;-33.424;-70.638;2023-11-18T10:19:14;9.60;;;3.70;;
34060;SDS011;20336;-33.424;-70.638;2023-11-18T10:21:43;10.10;;;4.40;;
34060;SDS011;20336;-33.424;-70.638;2023-11-18T10:24:14;8.07;;;4.10;;
34060;SDS011;20336;-33.424;-70.638;2023-11-18T10:26:54;8.70;;;3.90;;
34060;SDS011;20336;-33.424;-70.638;2023-11-18T10:29:24;6.63;;;3.53;;
34060;SDS011;20336;-33.424;-70.638;2023-11-18T10:32:06;7.00;;;4.00;;
34060;SDS011;20336;-33.424;-70.638;2023-11-18T10:34:35;8.57;;;3.80;;
34060;SDS011;20336;-33.424;-70.638;2023-11-18T10:37:02;7.37;;;3.97;;
34060;SDS011;20336;-33.424;-70.638;2023-11-18T10:39:31;11.07;;;4.30;;
34060;SDS011;20336;-33.424;-70.638;2023-11-18T10:42:00;10.23;;;4.10;;
34060;SDS011;20336;-33.424;-70.638;2023-11-18T10:44:28;9.10;;;4.40;;
34060;SDS011;20336;-33.424;-70.638;2023-11-18T10:46:55;7.17;;;4.13;;
34060;SDS011;20336;-33.424;-70.638;2023-11-18T10:49:29;8.73;;;4.67;;
34060;SDS011;20336;-33.424;-70.638;2023-11-18T10:52:04;13.33;;;4.33;;
34060;SDS011;20336;-33.424;-70.638;2023-11-18T10:54:33;9.40;;;4.73;;
34060;SDS011;20336;-33.424;-70.638;2023-11-18T10:57:01;8.73;;;5.23;;
34060;SDS011;20336;-33.424;-70.638;2023-11-18T10:59:32;7.93;;;4.53;;
34060;SDS011;20336;-33.424;-70.638;2023-11-18T11:02:00;8.47;;;5.40;;
34060;SDS011;20336;-33.424;-70.638;2023-11-18T11:04:27;9.80;;;5.20;;
34060;SDS011;20336;-33.424;-70.638;2023-11-18T11:07:10;10.07;;;5.23;;
34060;SDS011;20336;-33.424;-70.638;2023-11-18T11:09:38;7.93;;;4.73;;
34060;SDS011;20336;-33.424;-70.638;2023-11-18T11:12:10;11.37;;;4.97;;
34060;SDS011;20336;-33.424;-70.638;2023-11-18T11:15:01;9.53;;;5.03;;
34060;SDS011;20336;-33.424;-70.638;2023-11-18T11:17:31;9.97;;;4.47;;
34060;SDS011;20336;-33.424;-70.638;2023-11-18T11:20:06;12.13;;;5.23;;
34060;SDS011;20336;-33.424;-70.638;2023-11-18T11:25:22;12.20;;;5.07;;
34060;SDS011;20336;-33.424;-70.638;2023-11-18T11:27:55;12.37;;;5.37;;
34060;SDS011;20336;-33.424;-70.638;2023-11-18T11:30:28;11.87;;;5.67;;
34060;SDS011;20336;-33.424;-70.638;2023-11-18T11:33:04;8.13;;;5.20;;
34060;SDS011;20336;-33.424;-70.638;2023-11-18T11:35:36;12.03;;;5.03;;
34060;SDS011;20336;-33.424;-70.638;2023-11-18T11:38:05;14.03;;;5.10;;
34060;SDS011;20336;-33.424;-70.638;2023-11-18T11:40:38;12.33;;;5.80;;
34060;SDS011;20336;-33.424;-70.638;2023-11-18T11:43:07;13.40;;;6.03;;
34060;SDS011;20336;-33.424;-70.638;2023-11-18T11:45:48;14.13;;;6.30;;
34060;SDS011;20336;-33.424;-70.638;2023-11-18T11:48:17;14.17;;;7.10;;
34060;SDS011;20336;-33.424;-70.638;2023-11-18T11:53:46;11.70;;;7.00;;
34060;SDS011;20336;-33.424;-70.638;2023-11-18T11:56:14;14.00;;;7.80;;
34060;SDS011;20336;-33.424;-70.638;2023-11-18T11:58:46;18.20;;;7.67;;
34060;SDS011;20336;-33.424;-70.638;2023-11-18T12:01:22;15.63;;;6.93;;
34060;SDS011;20336;-33.424;-70.638;2023-11-18T12:03:58;14.90;;;7.10;;
34060;SDS011;20336;-33.424;-70.638;2023-11-18T12:06:33;17.13;;;7.70;;
34060;SDS011;20336;-33.424;-70.638;2023-11-18T12:09:02;11.70;;;6.90;;
34060;SDS011;20336;-33.424;-70.638;2023-11-18T12:11:32;17.57;;;7.77;;
34060;SDS011;20336;-33.424;-70.638;2023-11-18T12:17:11;16.38;;;8.48;;
34060;SDS011;20336;-33.424;-70.638;2023-11-18T12:19:47;23.42;;;9.60;;
34060;SDS011;20336;-33.424;-70.638;2023-11-18T12:22:18;22.80;;;8.25;;
34060;SDS011;20336;-33.424;-70.638;2023-11-18T12:27:45;15.90;;;7.78;;
34060;SDS011;20336;-33.424;-70.638;2023-11-18T12:35:44;17.05;;;7.65;;
34060;SDS011;20336;-33.424;-70.638;2023-11-18T12:41:01;21.13;;;8.00;;
34060;SDS011;20336;-33.424;-70.638;2023-11-18T12:44:00;16.60;;;7.82;;
34060;SDS011;20336;-33.424;-70.638;2023-11-18T12:47:04;17.67;;;7.78;;
34060;SDS011;20336;-33.424;-70.638;2023-11-18T12:49:08;17.45;;;7.85;;
34060;SDS011;20336;-33.424;-70.638;2023-11-18T12:51:49;18.10;;;8.38;;
34060;SDS011;20336;-33.424;-70.638;2023-11-18T12:54:17;17.27;;;7.90;;
34060;SDS011;20336;-33.424;-70.638;2023-11-18T12:56:45;23.00;;;8.45;;
34060;SDS011;20336;-33.424;-70.638;2023-11-18T12:59:15;17.00;;;7.90;;
34060;SDS011;20336;-33.424;-70.638;2023-11-18T13:01:52;17.35;;;9.07;;
34060;SDS011;20336;-33.424;-70.638;2023-11-18T13:04:22;13.93;;;8.13;;
34060;SDS011;20336;-33.424;-70.638;2023-11-18T13:06:50;19.45;;;7.55;;
34060;SDS011;20336;-33.424;-70.638;2023-11-18T13:09:17;17.17;;;7.50;;
34060;SDS011;20336;-33.424;-70.638;2023-11-18T13:12:04;17.20;;;8.10;;
34060;SDS011;20336;-33.424;-70.638;2023-11-18T13:14:34;19.75;;;8.48;;
34060;SDS011;20336;-33.424;-70.638;2023-11-18T13:17:02;22.63;;;7.80;;
34060;SDS011;20336;-33.424;-70.638;2023-11-18T13:19:34;22.08;;;8.82;;
34060;SDS011;20336;-33.424;-70.638;2023-11-18T13:22:01;19.52;;;8.68;;
34060;SDS011;20336;-33.424;-70.638;2023-11-18T13:24:35;18.95;;;9.18;;
34060;SDS011;20336;-33.424;-70.638;2023-11-18T13:27:02;19.38;;;9.20;;
34060;SDS011;20336;-33.424;-70.638;2023-11-18T13:29:30;25.17;;;10.85;;
34060;SDS011;20336;-33.424;-70.638;2023-11-18T13:31:58;19.60;;;9.57;;
34060;SDS011;20336;-33.424;-70.638;2023-11-18T13:34:29;31.23;;;10.48;;
34060;SDS011;20336;-33.424;-70.638;2023-11-18T13:37:06;20.60;;;10.07;;
34060;SDS011;20336;-33.424;-70.638;2023-11-18T13:39:35;19.20;;;9.75;;
34060;SDS011;20336;-33.424;-70.638;2023-11-18T13:42:23;30.25;;;11.57;;
34060;SDS011;20336;-33.424;-70.638;2023-11-18T13:44:51;24.92;;;9.82;;
34060;SDS011;20336;-33.424;-70.638;2023-11-18T13:47:18;16.27;;;8.68;;
34060;SDS011;20336;-33.424;-70.638;2023-11-18T13:49:48;16.70;;;8.48;;
34060;SDS011;20336;-33.424;-70.638;2023-11-18T13:52:16;20.27;;;9.57;;
34060;SDS011;20336;-33.424;-70.638;2023-11-18T13:54:44;21.17;;;10.00;;
34060;SDS011;20336;-33.424;-70.638;2023-11-18T13:57:11;31.83;;;10.70;;
34060;SDS011;20336;-33.424;-70.638;2023-11-18T13:59:38;22.92;;;10.23;;
34060;SDS011;20336;-33.424;-70.638;2023-11-18T14:02:08;23.85;;;9.57;;
34060;SDS011;20336;-33.424;-70.638;2023-11-18T14:04:35;26.08;;;11.00;;
34060;SDS011;20336;-33.424;-70.638;2023-11-18T14:07:03;25.00;;;11.25;;
34060;SDS011;20336;-33.424;-70.638;2023-11-18T14:09:31;22.30;;;10.18;;
34060;SDS011;20336;-33.424;-70.638;2023-11-18T14:12:07;20.08;;;9.90;;
34060;SDS011;20336;-33.424;-70.638;2023-11-18T14:14:34;22.48;;;11.45;;
34060;SDS011;20336;-33.424;-70.638;2023-11-18T14:17:02;19.02;;;9.45;;
34060;SDS011;20336;-33.424;-70.638;2023-11-18T14:19:31;21.52;;;9.50;;
34060;SDS011;20336;-33.424;-70.638;2023-11-18T14:22:02;20.77;;;9.90;;
34060;SDS011;20336;-33.424;-70.638;2023-11-18T14:24:33;25.75;;;9.50;;
34060;SDS011;20336;-33.424;-70.638;2023-11-18T14:27:00;23.73;;;10.43;;
34060;SDS011;20336;-33.424;-70.638;2023-11-18T14:29:27;23.08;;;10.65;;
34060;SDS011;20336;-33.424;-70.638;2023-11-18T14:31:54;22.05;;;10.50;;
34060;SDS011;20336;-33.424;-70.638;2023-11-18T14:34:21;23.95;;;10.63;;
34060;SDS011;20336;-33.424;-70.638;2023-11-18T14:36:49;17.35;;;10.43;;
34060;SDS011;20336;-33.424;-70.638;2023-11-18T14:39:16;26.00;;;9.88;;
34060;SDS011;20336;-33.424;-70.638;2023-11-18T14:41:47;25.00;;;11.43;;
34060;SDS011;20336;-33.424;-70.638;2023-11-18T14:44:14;18.40;;;9.43;;